Ashton, NE

11:08 PM CST on December 19, 2014 (GMT -0600)
Central | Change Station
CLOSE
Current Station
Personal Weather Station
Location: Loup City, NE
Elevation: 2090 ft
Nearby Weather Stations
Active Advisory: Dense Fog Advisory

Elev 2090 ft 41.28 °N, 98.97 °W | Updated 1 minute ago

Mostly Cloudy
Mostly Cloudy
24.3 °F
Feels Like 24 °F
N
2.7
Wind Variable Wind from South

Today
High -- | Low -- °F
--% Chance of Precip.
Yesterday
High -- | Low -- °F
Precip. -- in
7:56 AM 5:08 PM
Waning Crescent, 4% visible
Pressure 30.12 in
Visibility 0.5 miles
Clouds
Windchill 24 °F
Dew Point 24 °F
Humidity 99%
Rainfall 0.00 in
Snow Depth Not available.
UV Not available.
Pollen .10 out of 12
Air Quality Not available.
Flu Activity Not available.
METAR KGRI 200453Z AUTO 19009KT 1/2SM R35/2400V2800FT FG VV002 00/00 A3005 RMK AO2 SLP200 T00000000

More Conditions Fewer Conditions

Pressure 30.12 in
Visibility 0.5 miles
Clouds
Windchill 24 °F
Dew Point 24 °F
Humidity 99%
Rainfall 0.00 in
Snow Depth Not available.
UV Not available.
Pollen .10 out of 12
Air Quality Not available.
Flu Activity Not available.
METAR KGRI 200453Z AUTO 19009KT 1/2SM R35/2400V2800FT FG VV002 00/00 A3005 RMK AO2 SLP200 T00000000

More Conditions Fewer Conditions

10-Day Weather Forecast

Almanac

Astronomy

Dec. 19, 2014 Rise Set
Actual Time
Civil Twilight
Nautical Twilight
Astronomical Twilight
Moon
Length of Visible Light
Length of Day
Tomorrow will be .
, % of the Moon is Illuminated

Today's Extremes

State Highs State Lows

Community

WunderPhotos

Upload Photos

1,779,137 photos uploaded!

WunderBlogs® & News

Nearby

Air Quality

  Air Quality AQ Index Pollutant
Not available.

Snow Depth

Station Depth Elevation

Earthquake Activity

City Distance Mag. Time & Date
Minimum magnitude displayed is 2.5.

Coastal Water Temperatures

Place Temperature

Nearby Weather Stations